Terminal Aerodrome Forecast
Issued by NWS

Home | Current Version | Previous Version | Text Only | Print | Product List | Glossary On
Versions: 1 2 3 4 5 6 7 8 9 10 11 12 13 14 15 16 17 18 19 20
000
FTUS44 KEPZ 221100
TAFDMN
TAF
KDMN 221140Z 2212/2312 05006KT P6SM FEW060 SCT100 BKN250
     FM221400 VRB04KT P6SM FEW100 FEW250
     FM222000 14006KT P6SM FEW070 FEW250=

USA.gov is the U.S. government's official web portal to all federal, state and local government web resources and services.